Millville, NJ

4:09 PM EDT on August 04, 2015 (GMT -0400)
South Millville | | Change Station
CLOSE
Current Station
Personal Weather Station
Location: Millville, NJ
Elevation: 36 ft
Nearby Weather Stations

Elev 36 ft 39.38 °N, 75.02 °W | Updated 9 seconds ago

Clear
Clear
93.0 °F
Feels Like 96 °F
N
2.0
Wind Variable Wind from NW
Gusts 2.0 mph

Today
High -- | Low -- °F
--% Chance of Precip.
Yesterday
High -- | Low -- °F
Precip. -- in
6:02 AM 8:09 PM
Waning Gibbous, 75% visible
Pressure 29.89 in
Visibility 10.0 miles
Clouds Few 5000 ft
Heat Index 96 °F
Dew Point 66 °F
Humidity 41%
Rainfall 0.00 in
Snow Depth Not available.
UV 6 out of 12
Pollen 6.90 out of 12
Air Quality Not available.
Flu Activity Not available.
METAR KMIV 041954Z AUTO 26013KT 10SM FEW050 33/18 A2989 RMK AO2 SLP120 T03330178

More Conditions Fewer Conditions

Pressure 29.89 in
Visibility 10.0 miles
Clouds Few 5000 ft
Heat Index 96 °F
Dew Point 66 °F
Humidity 41%
Rainfall 0.00 in
Snow Depth Not available.
UV 6 out of 12
Pollen 6.90 out of 12
Air Quality Not available.
Flu Activity Not available.
METAR KMIV 041954Z AUTO 26013KT 10SM FEW050 33/18 A2989 RMK AO2 SLP120 T03330178

More Conditions Fewer Conditions

10-Day Weather Forecast

×

Almanac

Astronomy

Aug. 04, 2015 Rise Set
Actual Time
Civil Twilight
Nautical Twilight
Astronomical Twilight
Moon
Length of Visible Light
Length of Day
Tomorrow will be .
, % of the Moon is Illuminated

Today's Extremes

State Highs State Lows

Community

WunderPhotos

Upload Photos

1,843,962 photos uploaded!

WunderBlogs® & News

Nearby

Air Quality

  Air Quality AQ Index Pollutant
Not available.

Snow Depth

Station Depth Elevation

Earthquake Activity

City Distance Mag. Time & Date
Minimum magnitude displayed is 2.5.

Coastal Water Temperatures

Place Temperature

Stations

Nearby Weather Stations

Station Location Temp. Windchill Dew Point Humidity Wind Precip. Elev Updated Type